CW0454 Weather Reports


Display with metric or nautical units.
time (UTC)temp
F
wind
direction
speed
MPH
gust
MPH
rain 1hr
in
rain 24hr
in
rain mn
in
humidity
%
barometer
mb
20190224044400 37 22 1.0 2.0 0.03 0.24 0.24 93 1019.0
20190224043400 37 343 0.0 2.0 0.03 0.24 0.24 93 1019.4
20190224042400 37 47 0.0 3.0 0.02 0.23 0.23 93 1019.5
20190224041400 37 34 0.0 4.0 0.02 0.23 0.23 93 1019.6
20190224040400 37 313 0.0 3.0 0.01 0.22 0.22 93 1020.0
20190224035400 37 44 1.0 4.0 0.03 0.21 0.21 93 1020.3
20190224034400 37 29 1.0 5.0 0.02 0.20 0.20 93 1020.2
20190224033400 36 59 0.0 5.0 0.02 0.20 0.20 93 1020.4
20190224032400 36 59 3.0 8.0 0.01 0.19 0.19 92 1020.3
20190224031400 37 53 4.0 7.0 0.01 0.19 0.19 92 1020.5
20190224030400 36 62 3.0 5.0 0.00 0.18 0.18 92 1021.0
20190224025401 36 33 2.0 8.0 0.05 0.18 0.18 92 1021.2
20190224024400 36 56 1.0 8.0 0.04 0.17 0.17 92 1021.1
20190224023400 36 66 1.0 9.0 0.04 0.17 0.17 92 1021.2
20190224022400 36 48 1.0 4.0 0.03 0.16 0.16 92 1021.6
20190224021401 36 34 0.0 6.0 0.01 0.14 0.14 92 1022.3
20190224020400 36 61 0.0 4.0 0.00 0.13 0.13 92 1022.3
20190224015400 36 51 2.0 5.0 0.02 0.13 0.13 92 1022.6
20190224014400 37 60 1.0 10.0 0.02 0.13 0.13 92 1022.9
20190224013401 37 66 2.0 9.0 0.02 0.13 0.13 92 1023.0
20190224012400 37 61 1.0 5.0 0.02 0.13 0.13 92 1022.8
20190224011401 37 61 2.0 6.0 0.01 0.12 0.12 92 1022.8
20190224010400 37 70 1.0 8.0 0.01 0.12 0.12 92 1023.0
20190224005401 38 77 0.0 7.0 0.01 0.11 0.11 92 1023.4
20190224004400 38 47 0.0 5.0 0.01 0.11 0.11 92 1023.7
20190224003401 38 41 0.0 5.0 0.01 0.11 0.11 92 1024.0
20190224002401 38 53 2.0 5.0 0.00 0.10 0.10 92 1023.9
20190224001401 38 57 0.0 4.0 0.00 0.10 0.10 92 1024.0
20190224000401 38 84 1.0 6.0 0.00 0.10 0.10 91 1024.1
20190223235401 38 49 2.0 5.0 0.04 0.09 0.09 91 1024.2
20190223234401 38 51 0.0 7.0 0.03 0.08 0.08 91 1024.3
20190223233400 38 37 0.0 5.0 0.02 0.07 0.07 91 1024.8
20190223232401 38 43 0.0 9.0 0.01 0.06 0.06 91 1024.8
20190223231400 38 43 0.0 4.0 0.01 0.06 0.06 90 1024.2
20190223230401 38 66 2.0 7.0 0.00 0.05 0.05 90 1024.0
20190223225401 38 53 2.0 8.0 0.01 0.05 0.05 90 1023.7
20190223224401 39 54 3.0 10.0 0.00 0.04 0.04 89 1024.0
20190223223401 39 7 0.0 4.0 0.00 0.04 0.04 89 1024.5
20190223222401 39 22 0.0 3.0 0.00 0.04 0.04 89 1024.0
20190223221401 39 56 0.0 3.0 0.00 0.04 0.04 89 1023.9
20190223220402 39 65 0.0 0.0 0.00 0.04 0.04 89 1024.0
20190223215401 39 41 2.0 8.0 0.00 0.04 0.04 89 1023.8
20190223214402 38 57 0.0 4.0 0.00 0.04 0.04 89 1024.0
20190223213401 38 67 1.0 3.0 0.00 0.04 0.04 89 1024.1
20190223212401 38 59 0.0 4.0 0.00 0.04 0.04 89 1024.6
20190223211401 38 67 0.0 5.0 0.00 0.04 0.04 88 1025.0
20190223210401 38 71 0.0 5.0 0.00 0.04 0.04 88 1025.6
20190223205401 38 48 1.0 6.0 0.02 0.04 0.04 88 1025.8
20190223204401 38 53 0.0 0.0 0.02 0.04 0.04 88 1026.1
20190223203401 38 51 0.0 0.0 0.02 0.04 0.04 87 1026.2
20190223202401 38 35 0.0 2.0 0.01 0.03 0.03 87 1026.6
20190223201402 38 51 0.0 2.0 0.01 0.03 0.03 86 1026.5
20190223200401 38 37 0.0 4.0 0.00 0.02 0.02 85 1026.8
20190223195402 38 42 0.0 0.0 0.01 0.02 0.01 85 1026.9
20190223194401 38 30 0.0 0.0 0.01 0.01 0.01 83 1027.1
20190223193402 38 22 0.0 0.0 0.01 0.01 0.01 82 1027.2
20190223192402 38 46 0.0 0.0 0.00 0.00 0.00 81 1027.1
20190223191402 38 56 0.0 0.0 0.00 0.00 0.00 81 1027.2
20190223190401 38 44 0.0 0.0 0.00 0.00 0.00 82 1027.2
20190223185402 39 36 0.0 0.0 0.00 0.00 0.00 79 1027.3
20190223184402 39 46 0.0 0.0 0.00 0.00 0.00 79 1027.4
20190223183403 39 40 0.0 1.0 0.00 0.00 0.00 79 1027.5
20190223182402 39 36 0.0 2.0 0.00 0.00 0.00 79 1027.8
20190223181402 39 75 0.0 3.0 0.00 0.00 0.00 77 1027.9
20190223180402 39 71 0.0 2.0 0.00 0.00 0.00 77 1028.2
20190223175402 39 103 0.0 3.0 0.00 0.00 0.00 77 1028.4
20190223174402 39 72 0.0 3.0 0.00 0.00 0.00 76 1028.8
20190223173402 39 65 0.0 2.0 0.00 0.00 0.00 75 1029.4
20190223172402 40 59 0.0 0.0 0.00 0.00 0.00 73 1029.8
20190223171402 40 28 0.0 2.0 0.00 0.00 0.00 71 1030.0
20190223170402 40 118 0.0 2.0 0.00 0.00 0.00 71 1030.2
20190223165403 40 113 0.0 2.0 0.00 0.00 0.00 71 1030.3
20190223164402 39 77 0.0 3.0 0.00 0.00 0.00 72 1030.3
20190223163402 39 57 0.0 2.0 0.00 0.00 0.00 72 1030.4
20190223162402 39 55 0.0 2.0 0.00 0.00 0.00 72 1030.5
20190223161402 39 5 0.0 4.0 0.00 0.00 0.00 71 1030.9
20190223160402 38 59 0.0 4.0 0.00 0.00 0.00 72 1031.0
20190223155402 38 31 2.0 5.0 0.00 0.00 0.00 72 1031.2
20190223154403 38 55 1.0 6.0 0.00 0.00 0.00 73 1031.1
20190223153402 38 81 0.0 2.0 0.00 0.00 0.00 74 1031.1
20190223152403 38 43 0.0 3.0 0.00 0.00 0.00 72 1031.1
20190223151403 38 49 0.0 3.0 0.00 0.00 0.00 71 1031.1
20190223150402 38 70 0.0 4.0 0.00 0.00 0.00 71 1031.1
20190223145403 38 23 0.0 3.0 0.00 0.00 0.00 72 1031.1
20190223144402 38 58 1.0 5.0 0.00 0.00 0.00 71 1030.6
20190223143402 38 57 0.0 4.0 0.00 0.00 0.00 71 1031.0
20190223142403 38 31 0.0 5.0 0.00 0.00 0.00 71 1031.6
20190223141402 38 85 0.0 3.0 0.00 0.00 0.00 72 1031.8
20190223135358 37 91 1.0 5.0 0.00 0.00 0.00 72 1031.2
20190223134358 37 133 0.0 9.0 0.00 0.00 0.00 73 1031.1
20190223133358 37 65 1.0 8.0 0.00 0.00 0.00 72 1031.2
20190223132358 37 86 0.0 9.0 0.00 0.00 0.00 73 1030.9
20190223131358 37 59 1.0 7.0 0.00 0.00 0.00 73 1031.1
20190223130358 37 42 1.0 8.0 0.00 0.00 0.00 73 1031.4
20190223125357 37 67 0.0 7.0 0.00 0.00 0.00 74 1031.3
20190223124358 36 86 0.0 3.0 0.00 0.00 0.00 75 1031.3
20190223123358 36 51 0.0 1.0 0.00 0.00 0.00 75 1031.4
20190223122358 36 62 0.0 1.0 0.00 0.00 0.00 76 1031.3
20190223121359 36 51 0.0 2.0 0.00 0.00 0.00 78 1031.5
20190223120358 36 40 0.0 1.0 0.00 0.00 0.00 77 1031.2
20190223115357 36 89 0.0 4.0 0.00 0.00 0.00 76 1031.1
20190223114358 36 71 0.0 5.0 0.00 0.00 0.00 76 1030.5
20190223113359 36 42 0.0 7.0 0.00 0.00 0.00 75 1030.4
20190223112358 36 23 0.0 4.0 0.00 0.00 0.00 76 1030.4
20190223111359 36 72 0.0 6.0 0.00 0.00 0.00 76 1030.2
20190223110358 36 47 0.0 5.0 0.00 0.00 0.00 76 1030.4
20190223105359 36 49 0.0 3.0 0.00 0.00 0.00 76 1030.4
20190223104358 36 61 0.0 1.0 0.00 0.00 0.00 76 1030.4
20190223103358 36 78 0.0 1.0 0.00 0.00 0.00 76 1030.4
20190223102359 37 53 0.0 3.0 0.00 0.00 0.00 75 1030.2
20190223101358 37 95 0.0 7.0 0.00 0.00 0.00 75 1030.4
20190223100359 37 65 0.0 5.0 0.00 0.00 0.00 75 1030.4
20190223095359 37 80 0.0 3.0 0.00 0.00 0.00 76 1030.2
20190223094358 37 78 0.0 5.0 0.00 0.00 0.00 76 1030.5
20190223093358 37 60 0.0 3.0 0.00 0.00 0.00 77 1030.3
20190223092359 38 60 1.0 4.0 0.00 0.00 0.00 78 1030.3
20190223091358 38 92 0.0 8.0 0.00 0.00 0.00 79 1030.0
20190223090359 38 108 0.0 5.0 0.00 0.00 0.00 78 1029.9
20190223085359 38 73 0.0 5.0 0.00 0.00 0.00 78 1030.2
20190223084359 38 66 2.0 8.0 0.00 0.00 0.00 77 1030.0
20190223083359 38 37 0.0 5.0 0.00 0.00 0.00 75 1030.2
20190223082359 38 91 0.0 3.0 0.00 0.00 0.00 74 1029.7
20190223081359 38 75 1.0 6.0 0.00 0.00 0.00 72 1030.1
20190223080359 38 46 0.0 4.0 0.00 0.00 0.00 71 1030.2
20190223075359 38 32 1.0 5.0 0.00 0.00 0.00 72 1030.7
20190223074359 37 56 0.0 5.0 0.00 0.00 0.00 75 1030.5
20190223073400 36 41 1.0 6.0 0.00 0.00 0.00 79 1030.7
20190223072359 35 42 0.0 1.0 0.00 0.00 0.00 83 1030.6
20190223071358 35 67 0.0 1.0 0.00 0.00 0.00 84 1030.6
20190223070359 35 49 0.0 0.0 0.00 0.00 0.00 84 1030.8
20190223065359 34 51 0.0 0.0 0.00 0.00 0.00 84 1031.1
20190223064359 34 118 0.0 0.0 0.00 0.00 0.00 84 1031.2
20190223063400 35 119 0.0 0.0 0.00 0.00 0.00 83 1031.2
20190223062359 35 119 0.0 0.0 0.00 0.00 0.00 83 1031.2
20190223061359 35 119 0.0 0.0 0.00 0.00 0.00 83 1031.2
20190223060359 35 119 0.0 0.0 0.00 0.00 0.00 84 1031.1
20190223055359 35 119 0.0 0.0 0.00 0.00 0.00 83 1030.7
20190223054359 35 119 0.0 0.0 0.00 0.00 0.00 83 1030.5
20190223053359 35 119 0.0 0.0 0.00 0.00 0.00 83 1030.5
20190223052400 35 119 0.0 0.0 0.00 0.00 0.00 84 1030.7
20190223051359 35 119 0.0 0.0 0.00 0.00 0.00 84 1030.6
20190223050400 35 119 0.0 0.0 0.00 0.00 0.00 84 1030.6
20190223045359 35 119 0.0 0.0 0.00 0.00 0.00 83 1030.8